FW2053 Weather Reports


Display with metric or nautical units.
time (UTC)temp
F
wind
direction
speed
MPH
gust
MPH
rain 1hr
in
rain 24hr
in
rain mn
in
humidity
%
barometer
mb
20210728082148 78 275 0.0 0.0 0.00 0.00 0.00 85 1017.1
20210728081652 78 275 0.0 0.0 0.00 0.00 0.00 85 1017.1
20210728081146 78 275 0.0 0.0 0.00 0.00 0.00 85 1017.0
20210728080644 78 275 0.0 0.0 0.00 0.00 0.00 85 1017.0
20210728080142 78 284 0.0 1.0 0.00 0.00 0.00 85 1017.0
20210728075643 78 286 0.0 1.0 0.00 0.00 0.00 85 1017.0
20210728075137 78 290 1.0 2.0 0.00 0.00 0.00 85 1017.0
20210728074634 78 290 1.0 3.0 0.00 0.00 0.00 85 1017.0
20210728074135 78 290 1.0 6.0 0.00 0.00 0.00 85 1017.0
20210728073634 78 290 1.0 6.0 0.00 0.00 0.00 85 1017.2
20210728073135 78 222 0.0 2.0 0.00 0.00 0.00 85 1017.2
20210728072635 78 222 0.0 2.0 0.00 0.00 0.00 85 1017.2
20210728072131 78 222 0.0 2.0 0.00 0.00 0.00 85 1017.4
20210728071631 78 222 1.0 3.0 0.00 0.00 0.00 85 1017.3
20210728071130 78 222 1.0 3.0 0.00 0.00 0.00 85 1017.4
20210728070632 78 221 0.0 1.0 0.00 0.00 0.00 85 1017.2
20210728070130 78 221 0.0 0.0 0.00 0.00 0.00 85 1017.2
20210728065630 78 221 0.0 0.0 0.00 0.00 0.00 85 1017.1
20210728065125 78 221 0.0 1.0 0.00 0.00 0.00 85 1017.0
20210728064621 78 221 0.0 2.0 0.00 0.00 0.00 85 1017.0
20210728064120 78 221 0.0 2.0 0.00 0.00 0.00 85 1017.0
20210728063619 78 221 0.0 2.0 0.00 0.00 0.00 85 1017.1
20210728063115 78 221 0.0 0.0 0.00 0.00 0.00 85 1017.1
20210728062612 78 221 0.0 1.0 0.00 0.00 0.00 85 1017.0
20210728062109 78 221 0.0 1.0 0.00 0.00 0.00 85 1017.2
20210728061605 78 221 0.0 2.0 0.00 0.00 0.00 85 1017.3
20210728061103 78 221 0.0 2.0 0.00 0.00 0.00 85 1017.2
20210728060603 78 221 0.0 2.0 0.00 0.00 0.00 85 1017.3
20210728060102 78 221 0.0 2.0 0.00 0.00 0.00 84 1017.4
20210728055559 78 221 0.0 1.0 0.00 0.00 0.00 84 1017.4
20210728055055 78 221 0.0 2.0 0.00 0.00 0.00 84 1017.5
20210728054556 78 221 0.0 2.0 0.00 0.00 0.00 84 1017.5
20210728054055 78 221 0.0 2.0 0.00 0.00 0.00 83 1017.7
20210728053556 78 221 0.0 1.0 0.00 0.00 0.00 83 1017.6
20210728053051 78 221 0.0 0.0 0.00 0.00 0.00 82 1017.5
20210728052550 78 221 0.0 0.0 0.00 0.00 0.00 82 1017.4
20210728052052 78 221 0.0 0.0 0.00 0.00 0.00 82 1017.4
20210728051550 78 221 0.0 1.0 0.00 0.00 0.00 82 1017.5
20210728051047 78 221 0.0 1.0 0.00 0.00 0.00 82 1017.6
20210728050548 78 221 0.0 3.0 0.00 0.00 0.00 82 1017.6
20210728050046 78 221 0.0 3.0 0.00 0.00 0.00 82 1017.5
20210728045547 79 221 0.0 0.0 0.00 0.00 0.00 81 1017.6
20210728045044 79 221 0.0 0.0 0.00 0.00 0.00 80 1017.6
20210728044541 79 221 0.0 0.0 0.00 0.00 0.00 80 1017.5
20210728044039 79 221 0.0 0.0 0.00 0.00 0.00 79 1017.6
20210728043540 79 221 0.0 0.0 0.00 0.00 0.00 79 1017.4
20210728043033 79 221 0.0 0.0 0.00 0.00 0.00 79 1017.5
20210728042531 79 221 0.0 0.0 0.00 0.00 0.00 79 1017.4
20210728042029 79 221 0.0 0.0 0.00 0.00 0.00 79 1017.3
20210728041526 79 221 0.0 0.0 0.00 0.00 0.00 79 1017.3
20210728041028 80 221 0.0 0.0 0.00 0.00 0.00 78 1017.3
20210728040523 80 221 0.0 0.0 0.00 0.00 0.00 78 1017.5
20210728040019 80 221 0.0 0.0 0.00 0.00 0.00 78 1017.5
20210728035517 80 221 0.0 0.0 0.00 0.00 0.00 78 1017.6
20210728035017 80 221 0.0 0.0 0.00 0.00 0.00 77 1017.6
20210728034518 80 221 0.0 0.0 0.00 0.00 0.00 77 1017.6
20210728034015 80 221 0.0 0.0 0.00 0.00 0.00 76 1017.5
20210728033515 80 221 0.0 0.0 0.00 0.00 0.00 76 1017.6
20210728033013 80 221 0.0 0.0 0.00 0.00 0.00 76 1017.7
20210728032510 80 221 0.0 0.0 0.00 0.00 0.00 76 1017.7
20210728032009 80 221 0.0 0.0 0.00 0.00 0.00 76 1017.8
20210728031510 80 221 0.0 0.0 0.00 0.00 0.00 75 1017.7
20210728031009 80 221 0.0 0.0 0.00 0.00 0.00 75 1017.7
20210728030509 80 221 0.0 0.0 0.00 0.00 0.00 75 1017.7
20210728030010 80 221 0.0 0.0 0.00 0.00 0.00 74 1017.6
20210728025508 80 221 0.0 0.0 0.00 0.00 0.00 73 1017.7
20210728025009 80 221 0.0 0.0 0.00 0.00 0.00 73 1017.7
20210728024515 80 221 0.0 0.0 0.00 0.00 0.00 72 1017.7
20210728024003 80 221 0.0 0.0 0.00 0.00 0.00 71 1017.6
20210728023505 80 221 0.0 0.0 0.00 0.00 0.00 71 1017.8
20210728023005 80 221 0.0 0.0 0.00 0.00 0.00 70 1017.7
20210728022505 80 221 0.0 0.0 0.00 0.00 0.00 70 1017.8
20210728022003 81 221 0.0 0.0 0.00 0.00 0.00 70 1017.8
20210728021505 81 221 0.0 0.0 0.00 0.00 0.00 70 1017.7
20210728021000 81 221 0.0 0.0 0.00 0.00 0.00 70 1017.7
20210728020500 81 221 0.0 0.0 0.00 0.00 0.00 69 1017.6
20210728020001 81 221 0.0 0.0 0.00 0.00 0.00 69 1017.5
20210728015500 81 221 0.0 0.0 0.00 0.00 0.00 67 1017.4
20210728015000 81 221 0.0 0.0 0.00 0.00 0.00 67 1017.4
20210728014502 81 221 0.0 0.0 0.00 0.00 0.00 67 1017.2
20210728013955 81 221 0.0 0.0 0.00 0.00 0.00 66 1017.2
20210728013456 81 221 0.0 0.0 0.00 0.00 0.00 65 1017.1
20210728012955 82 221 0.0 0.0 0.00 0.00 0.00 64 1017.1
20210728012456 82 221 0.0 0.0 0.00 0.00 0.00 63 1017.1
20210728011955 82 221 0.0 0.0 0.00 0.00 0.00 63 1017.1
20210728011457 82 221 0.0 0.0 0.00 0.00 0.00 62 1016.9
20210728010956 82 221 0.0 0.0 0.00 0.00 0.00 61 1017.0
20210728010455 83 221 0.0 0.0 0.00 0.00 0.00 60 1016.8
20210728005957 83 221 0.0 0.0 0.00 0.00 0.00 59 1016.8
20210727214459 90 119 2.0 7.0 0.00 0.02 0.00 62 1016.5
20210727213958 90 101 3.0 7.0 0.00 0.02 0.00 62 1016.7
20210727213456 90 111 3.0 8.0 0.00 0.02 0.00 63 1016.5
20210727212955 89 113 4.0 8.0 0.00 0.02 0.00 64 1016.5
20210727212456 88 113 4.0 8.0 0.00 0.02 0.00 63 1016.5
20210727211955 88 101 4.0 8.0 0.00 0.02 0.00 62 1016.5
20210727211454 87 76 3.0 5.0 0.00 0.02 0.00 65 1016.6
20210727210954 87 78 3.0 5.0 0.00 0.02 0.00 66 1016.7
20210727210453 87 46 4.0 7.0 0.00 0.02 0.00 67 1016.9
20210727205951 87 15 4.0 8.0 0.00 0.02 0.00 67 1016.9
20210727205449 87 54 4.0 8.0 0.00 0.02 0.00 68 1017.0
20210727204949 88 57 4.0 7.0 0.00 0.02 0.00 66 1016.9
20210727204451 88 46 4.0 9.0 0.00 0.02 0.00 66 1016.9
20210727203950 89 60 4.0 9.0 0.00 0.02 0.00 65 1017.0
20210727203450 89 51 6.0 10.0 0.00 0.02 0.00 64 1017.0
20210727202951 90 121 5.0 10.0 0.00 0.02 0.00 60 1016.9
20210727202451 92 100 3.0 9.0 0.00 0.02 0.00 56 1017.0
20210727201947 93 106 2.0 6.0 0.00 0.02 0.00 55 1016.9
20210727201448 95 84 2.0 7.0 0.00 0.02 0.00 53 1016.9
20210727200944 96 238 2.0 8.0 0.00 0.02 0.00 52 1016.9
20210727200444 96 219 2.0 8.0 0.00 0.02 0.00 51 1017.0
20210727195945 96 261 2.0 6.0 0.00 0.02 0.00 51 1017.0
20210727195437 96 136 2.0 8.0 0.00 0.02 0.00 53 1017.0
20210727194938 97 105 2.0 8.0 0.00 0.02 0.00 50 1017.1
20210727194437 97 211 2.0 10.0 0.00 0.02 0.00 51 1017.1
20210727193938 97 114 1.0 10.0 0.00 0.02 0.00 52 1017.1
20210727193439 97 209 0.0 3.0 0.00 0.02 0.00 51 1017.2
20210727192940 96 223 0.0 3.0 0.00 0.02 0.00 51 1017.2
20210727192434 95 109 1.0 9.0 0.00 0.02 0.00 52 1017.2
20210727191931 95 113 2.0 9.0 0.00 0.02 0.00 51 1017.3
20210727191432 97 105 2.0 6.0 0.00 0.02 0.00 51 1017.3
20210727190927 97 101 2.0 6.0 0.00 0.02 0.00 49 1017.4
20210727190427 97 230 2.0 6.0 0.00 0.03 0.00 51 1017.5
20210727185919 96 213 1.0 5.0 0.00 0.07 0.00 51 1017.5
20210727185419 96 173 2.0 7.0 0.00 0.10 0.00 53 1017.5
20210727184919 95 238 3.0 7.0 0.00 0.10 0.00 52 1017.6
20210727184420 95 252 2.0 5.0 0.00 0.10 0.00 54 1017.6
20210727183920 95 113 3.0 6.0 0.00 0.10 0.00 55 1017.8
20210727183420 96 56 2.0 6.0 0.00 0.10 0.00 53 1017.7
20210727182915 97 115 1.0 4.0 0.00 0.10 0.00 52 1017.7
20210727182415 97 205 2.0 5.0 0.00 0.10 0.00 53 1017.7
20210727181916 96 219 2.0 6.0 0.00 0.10 0.00 54 1017.8
20210727181414 95 97 1.0 6.0 0.00 0.10 0.00 55 1017.8
20210727180915 94 167 1.0 5.0 0.00 0.10 0.00 57 1017.8
20210727180414 93 200 0.0 4.0 0.00 0.10 0.00 59 1017.8
20210727175911 92 132 0.0 0.0 0.00 0.10 0.00 60 1017.8
20210727175410 91 132 0.0 2.0 0.00 0.10 0.00 61 1017.8
20210727174910 91 194 0.0 2.0 0.00 0.10 0.00 61 1017.8
20210727174411 91 194 0.0 3.0 0.00 0.10 0.00 61 1017.9
20210727173907 92 209 0.0 3.0 0.00 0.10 0.00 60 1017.9
20210727173409 92 229 0.0 1.0 0.00 0.10 0.00 60 1018.0
20210727172901 92 219 0.0 0.0 0.00 0.10 0.00 60 1018.0
20210727172400 92 219 0.0 4.0 0.00 0.10 0.00 60 1018.0
20210727171859 92 219 1.0 4.0 0.00 0.10 0.00 59 1018.1
20210727171358 93 219 1.0 5.0 0.00 0.10 0.00 60 1018.1
20210727170901 92 219 1.0 5.0 0.00 0.10 0.00 60 1018.2
20210727170359 91 169 0.0 5.0 0.00 0.10 0.00 62 1018.2
20210727165851 90 97 1.0 4.0 0.00 0.10 0.00 62 1018.2
20210727165352 90 97 1.0 4.0 0.00 0.10 0.00 62 1018.2
20210727164856 90 93 2.0 8.0 0.00 0.10 0.00 61 1018.3
20210727164352 91 89 2.0 8.0 0.00 0.10 0.00 61 1018.4
20210727163852 91 257 2.0 5.0 0.00 0.10 0.00 61 1018.4
20210727163352 90 288 2.0 5.0 0.00 0.10 0.00 63 1018.4
20210727162850 88 344 3.0 8.0 0.00 0.10 0.00 65 1018.4
20210727162347 88 355 3.0 8.0 0.00 0.10 0.00 65 1018.5
20210727161848 89 78 2.0 7.0 0.00 0.10 0.00 64 1018.5
20210727161346 90 103 2.0 7.0 0.00 0.10 0.00 64 1018.4
20210727160846 89 198 3.0 7.0 0.00 0.10 0.00 64 1018.4
20210727160349 90 238 2.0 6.0 0.00 0.10 0.00 63 1018.5
20210727155845 89 217 2.0 5.0 0.00 0.10 0.00 64 1018.6
20210727155344 89 209 2.0 6.0 0.00 0.10 0.00 64 1018.5
20210727154838 89 212 2.0 6.0 0.00 0.10 0.00 64 1018.4
20210727154339 88 224 3.0 7.0 0.00 0.10 0.00 65 1018.4
20210727153841 88 221 3.0 7.0 0.00 0.10 0.00 65 1018.5
20210727153342 89 219 1.0 5.0 0.00 0.10 0.00 65 1018.6
20210727152842 89 220 0.0 5.0 0.00 0.10 0.00 65 1018.5
20210727152335 88 200 2.0 5.0 0.00 0.10 0.00 67 1018.5
20210727151836 88 200 2.0 7.0 0.00 0.10 0.00 66 1018.5
20210727151335 87 127 1.0 7.0 0.00 0.10 0.00 66 1018.5
20210727150835 87 314 1.0 3.0 0.00 0.10 0.00 67 1018.5
20210727150335 86 314 1.0 3.0 0.00 0.10 0.00 69 1018.5
20210727145831 85 300 2.0 5.0 0.00 0.10 0.00 69 1018.5
20210727145330 84 285 2.0 5.0 0.00 0.10 0.00 71 1018.6
20210727144832 84 298 2.0 5.0 0.00 0.10 0.00 72 1018.6
20210727144328 83 266 1.0 4.0 0.00 0.10 0.00 73 1018.6
20210727143828 82 278 2.0 8.0 0.00 0.10 0.00 75 1018.7
20210727143331 81 275 2.0 8.0 0.00 0.10 0.00 76 1018.6
20210727142824 81 300 3.0 8.0 0.00 0.10 0.00 77 1018.6
20210727142322 80 27 3.0 8.0 0.00 0.10 0.00 78 1018.5
20210727141822 80 329 2.0 5.0 0.00 0.10 0.00 79 1018.6
20210727141323 80 340 1.0 5.0 0.00 0.10 0.00 81 1018.5
20210727140822 79 248 2.0 5.0 0.00 0.10 0.00 82 1018.6
20210727140323 78 250 3.0 5.0 0.00 0.10 0.00 82 1018.6
20210727135826 78 266 3.0 6.0 0.00 0.10 0.00 83 1018.7
20210727135319 77 214 3.0 7.0 0.00 0.10 0.00 84 1018.6
20210727134815 77 277 3.0 8.0 0.00 0.10 0.00 85 1018.6
20210727134319 77 268 5.0 10.0 0.00 0.10 0.00 85 1018.6
20210727133816 77 280 5.0 10.0 0.00 0.10 0.00 85 1018.5
20210727133316 76 336 5.0 9.0 0.00 0.10 0.00 86 1018.5
20210727132815 76 272 5.0 9.0 0.00 0.10 0.00 86 1018.4
20210727132311 76 293 5.0 9.0 0.00 0.10 0.00 87 1018.5
20210727131811 76 256 3.0 8.0 0.00 0.10 0.00 88 1018.5
20210727131311 75 292 3.0 7.0 0.00 0.10 0.00 90 1018.6
20210727130809 75 284 4.0 7.0 0.00 0.10 0.00 90 1018.4
20210727130310 74 318 4.0 8.0 0.00 0.10 0.00 90 1018.4
20210727125810 74 258 3.0 8.0 0.00 0.10 0.00 91 1018.4
20210727125309 74 253 2.0 6.0 0.00 0.10 0.00 91 1018.4
20210727124807 74 261 2.0 6.0 0.00 0.10 0.00 92 1018.3
20210727124315 74 234 2.0 5.0 0.00 0.10 0.00 92 1018.3
20210727123806 74 249 2.0 5.0 0.00 0.10 0.00 93 1018.4
20210727123304 73 306 2.0 6.0 0.00 0.10 0.00 93 1018.3
20210727122801 73 279 2.0 6.0 0.00 0.10 0.00 93 1018.2
20210727122300 73 281 2.0 7.0 0.00 0.10 0.00 93 1018.3
20210727121759 73 283 3.0 7.0 0.00 0.10 0.00 93 1018.2
20210727121301 73 296 3.0 7.0 0.00 0.10 0.00 93 1018.3
20210727120800 73 272 2.0 6.0 0.00 0.10 0.00 93 1018.1
20210727120255 73 244 2.0 4.0 0.00 0.10 0.00 93 1018.1
20210727115756 72 229 3.0 8.0 0.00 0.10 0.00 93 1018.3
20210727115256 72 234 3.0 8.0 0.00 0.10 0.00 93 1018.2
20210727114758 72 240 2.0 7.0 0.00 0.10 0.00 93 1018.3
20210727114255 72 266 2.0 7.0 0.00 0.10 0.00 93 1018.3
20210727113758 72 277 2.0 7.0 0.00 0.10 0.00 93 1018.2
20210727113252 72 296 2.0 7.0 0.00 0.10 0.00 93 1018.3
20210727112750 72 255 1.0 5.0 0.00 0.10 0.00 93 1018.3
20210727112251 72 261 1.0 5.0 0.00 0.10 0.00 93 1018.4
20210727111750 72 232 0.0 4.0 0.00 0.10 0.00 93 1018.4
20210727111250 72 228 0.0 3.0 0.00 0.10 0.00 93 1018.3
20210727110752 72 228 2.0 5.0 0.00 0.10 0.00 93 1018.3
20210727110246 72 229 2.0 5.0 0.00 0.10 0.00 93 1018.3
20210727105749 72 239 2.0 5.0 0.00 0.10 0.00 93 1018.2
20210727105247 72 239 2.0 5.0 0.00 0.10 0.00 93 1018.1
20210727104747 71 231 2.0 5.0 0.00 0.10 0.00 93 1018.2
20210727104249 71 232 3.0 5.0 0.00 0.10 0.00 93 1018.1
20210727103751 71 214 3.0 5.0 0.00 0.10 0.00 93 1018.1
20210727103244 71 214 3.0 4.0 0.00 0.10 0.00 93 1018.1
20210727102743 71 212 3.0 5.0 0.00 0.10 0.00 93 1018.0
20210727102244 71 212 2.0 5.0 0.00 0.10 0.00 93 1018.1
20210727101742 71 231 2.0 5.0 0.00 0.10 0.00 93 1018.0
20210727101242 71 261 1.0 3.0 0.00 0.10 0.00 93 1018.0
20210727100743 71 261 1.0 3.0 0.00 0.10 0.00 93 1017.9
20210727100238 71 261 1.0 4.0 0.00 0.10 0.00 93 1018.0
20210727095738 71 261 3.0 7.0 0.00 0.10 0.00 93 1018.0
20210727095240 71 284 3.0 7.0 0.00 0.10 0.00 93 1017.9
20210727094739 71 244 3.0 7.0 0.00 0.10 0.00 93 1017.8
20210727094240 71 243 3.0 7.0 0.00 0.10 0.00 93 1017.7
20210727093739 71 232 3.0 8.0 0.00 0.10 0.00 93 1017.7
20210727093239 71 243 4.0 8.0 0.00 0.10 0.00 93 1017.7
20210727092739 72 240 4.0 7.0 0.00 0.10 0.00 93 1017.6
20210727092240 72 240 4.0 8.0 0.00 0.10 0.00 93 1017.6
20210727091737 72 232 4.0 8.0 0.00 0.10 0.00 93 1017.6
20210727091238 71 264 3.0 7.0 0.00 0.10 0.00 93 1017.6
20210727090734 71 246 3.0 7.0 0.00 0.10 0.00 93 1017.6
20210727090234 71 241 3.0 7.0 0.00 0.10 0.00 93 1017.6
20210727085727 71 230 2.0 7.0 0.00 0.10 0.00 93 1017.6
20210727085226 71 226 3.0 7.0 0.00 0.10 0.00 93 1017.6
20210727084727 71 226 4.0 8.0 0.00 0.10 0.00 93 1017.6
20210727084224 71 225 4.0 9.0 0.00 0.10 0.00 93 1017.5
20210727083726 71 221 4.0 10.0 0.00 0.10 0.00 92 1017.6
20210727083226 71 219 3.0 10.0 0.00 0.10 0.00 92 1017.5
20210727082725 71 192 1.0 8.0 0.00 0.10 0.00 92 1017.6